Time;durP1;ratioP1;P1;durP2;ratioP2;P2;SDS_P1;SDS_P2;PMS_P1;PMS_P2;Temp;Humidity;BMP_temperature;BMP_pressure;BME280_temperature;BME280_humidity;BME280_pressure;Samples;Min_cycle;Max_cycle;Signal;HPM_P1;HPM_P2
2023/07/21 00:00:25;;;;;;;4.05;2.22;;;16.90;99.90;;;;;;5091543;28;20506;-50
2023/07/21 00:02:51;;;;;;;6.25;2.70;;;16.80;99.90;;;;;;5091393;28;20447;-49
2023/07/21 00:05:17;;;;;;;4.03;2.15;;;16.80;99.90;;;;;;5091161;28;20110;-53
2023/07/21 00:07:44;;;;;;;6.13;2.33;;;16.80;99.90;;;;;;5091208;28;20498;-51
2023/07/21 00:10:10;;;;;;;3.95;2.42;;;16.80;99.90;;;;;;5090980;28;20040;-51
2023/07/21 00:12:46;;;;;;;4.90;2.58;;;16.80;99.90;;;;;;5090122;28;20093;-49
2023/07/21 00:15:15;;;;;;;6.95;2.78;;;16.80;99.90;;;;;;5091016;28;20043;-48
2023/07/21 00:17:42;;;;;;;5.35;2.78;;;16.80;99.90;;;;;;5069999;28;20040;-49
2023/07/21 00:20:11;;;;;;;4.95;2.38;;;16.70;99.90;;;;;;5070726;28;20040;-49
2023/07/21 00:22:40;;;;;;;5.50;2.70;;;16.70;99.90;;;;;;5070427;28;20127;-48
2023/07/21 00:25:10;;;;;;;5.63;2.45;;;16.70;99.90;;;;;;5088425;28;20073;-50
2023/07/21 00:27:40;;;;;;;5.13;2.63;;;16.70;99.90;;;;;;5089196;28;20043;-49
2023/07/21 00:30:07;;;;;;;8.52;3.33;;;16.60;99.90;;;;;;5090843;28;20036;-47
2023/07/21 00:32:37;;;;;;;5.65;2.85;;;16.60;99.90;;;;;;5090529;28;20051;-51
2023/07/21 00:35:08;;;;;;;5.53;2.63;;;16.60;99.90;;;;;;5070681;28;20093;-47
2023/07/21 00:37:37;;;;;;;5.90;2.50;;;16.60;99.90;;;;;;5070408;28;20076;-48
2023/07/21 00:40:04;;;;;;;5.82;2.78;;;16.60;99.90;;;;;;5070922;28;20127;-49
2023/07/21 00:42:30;;;;;;;7.15;3.08;;;16.50;99.90;;;;;;5070165;28;20522;-48
2023/07/21 00:44:57;;;;;;;6.35;3.65;;;16.50;99.90;;;;;;5070622;28;20238;-48
2023/07/21 00:47:23;;;;;;;6.57;3.75;;;16.50;99.90;;;;;;5070488;28;20072;-50
2023/07/21 00:49:50;;;;;;;7.20;3.53;;;16.50;99.90;;;;;;5070817;28;20032;-50
2023/07/21 00:52:18;;;;;;;6.25;3.35;;;16.40;99.90;;;;;;5070637;28;20028;-48
2023/07/21 00:54:47;;;;;;;6.97;3.22;;;16.40;99.90;;;;;;5073102;28;20047;-51
2023/07/21 00:57:14;;;;;;;6.82;3.40;;;16.40;99.90;;;;;;5090215;28;20670;-50
2023/07/21 00:59:40;;;;;;;5.35;3.00;;;16.40;99.90;;;;;;5090740;28;20046;-50
2023/07/21 01:02:06;;;;;;;5.30;2.70;;;16.40;99.90;;;;;;5089047;28;20044;-50
2023/07/21 01:04:33;;;;;;;6.57;2.38;;;16.40;99.90;;;;;;5090518;28;20391;-48
2023/07/21 01:07:03;;;;;;;6.50;2.78;;;16.40;99.90;;;;;;5053544;28;20036;-50
2023/07/21 01:09:30;;;;;;;6.00;2.90;;;16.40;99.90;;;;;;5070651;28;20064;-49
2023/07/21 01:11:56;;;;;;;5.63;2.80;;;16.40;99.90;;;;;;5070145;28;20044;-49
2023/07/21 01:14:21;;;;;;;4.78;2.55;;;16.40;99.90;;;;;;5070291;28;20124;-52
2023/07/21 01:16:48;;;;;;;5.82;3.10;;;16.30;99.90;;;;;;5070085;28;20040;-47
2023/07/21 01:19:15;;;;;;;6.00;3.00;;;16.30;99.90;;;;;;5070786;28;20048;-48
2023/07/21 01:21:51;;;;;;;5.07;2.88;;;16.20;99.90;;;;;;5070467;28;20033;-49
2023/07/21 01:24:42;;;;;;;6.28;3.25;;;16.20;99.90;;;;;;5070070;28;20116;-48
2023/07/21 01:27:10;;;;;;;6.78;3.15;;;16.20;99.90;;;;;;5065186;28;20043;-50
2023/07/21 01:29:41;;;;;;;5.43;2.70;;;16.30;99.90;;;;;;5070137;28;20157;-51
2023/07/21 01:32:11;;;;;;;5.05;2.65;;;16.20;99.90;;;;;;5090338;28;20395;-48
2023/07/21 01:34:38;;;;;;;5.43;3.05;;;16.30;99.90;;;;;;5090032;28;20036;-50
2023/07/21 01:37:07;;;;;;;7.30;3.38;;;16.20;99.90;;;;;;5085007;28;20132;-50
2023/07/21 01:39:35;;;;;;;6.88;3.50;;;16.30;99.90;;;;;;5069869;28;20120;-50
2023/07/21 01:42:02;;;;;;;5.05;3.42;;;16.20;99.90;;;;;;5089244;28;20047;-51
2023/07/21 01:44:28;;;;;;;5.47;3.70;;;16.20;99.90;;;;;;5090228;28;20503;-49
2023/07/21 01:46:54;;;;;;;5.55;3.40;;;16.20;99.90;;;;;;5087314;28;20036;-49
2023/07/21 01:49:20;;;;;;;6.38;3.35;;;16.20;99.90;;;;;;5090531;28;20502;-49
2023/07/21 01:51:50;;;;;;;5.85;3.20;;;16.20;99.90;;;;;;5092447;28;20039;-51
2023/07/21 01:54:40;;;;;;;7.65;3.63;;;16.10;99.90;;;;;;5092320;28;20093;-51
2023/07/21 01:57:07;;;;;;;6.38;3.50;;;16.00;99.90;;;;;;5093480;28;20028;-50
2023/07/21 01:59:33;;;;;;;5.82;3.50;;;15.90;99.90;;;;;;5085830;28;20041;-47
2023/07/21 02:01:59;;;;;;;6.30;3.30;;;15.80;99.90;;;;;;5073919;28;20043;-47
2023/07/21 02:04:26;;;;;;;5.40;3.50;;;15.80;99.90;;;;;;5073066;28;20033;-50
2023/07/21 02:06:52;;;;;;;6.53;3.45;;;15.70;99.90;;;;;;5091853;28;20036;-48
2023/07/21 02:09:19;;;;;;;7.50;3.88;;;15.70;99.90;;;;;;5093506;28;20028;-50
2023/07/21 02:11:45;;;;;;;7.22;3.67;;;15.70;99.90;;;;;;5093362;28;20044;-50
2023/07/21 02:14:11;;;;;;;6.28;3.83;;;15.70;99.90;;;;;;5091904;28;20036;-52
2023/07/21 02:16:37;;;;;;;6.13;3.38;;;15.70;99.90;;;;;;5093568;28;20443;-50
2023/07/21 02:19:06;;;;;;;6.70;3.60;;;15.70;99.90;;;;;;5093057;28;20123;-51
2023/07/21 02:21:33;;;;;;;4.88;3.50;;;15.70;99.90;;;;;;5093354;28;20086;-51
2023/07/21 02:23:59;;;;;;;6.10;3.63;;;15.70;99.90;;;;;;5092728;28;20073;-49
2023/07/21 02:26:24;;;;;;;7.28;3.63;;;15.60;99.90;;;;;;5093002;28;20079;-47
2023/07/21 02:28:50;;;;;;;6.32;3.80;;;15.60;99.90;;;;;;5093269;28;20392;-48
2023/07/21 02:31:16;;;;;;;6.05;4.20;;;15.60;99.90;;;;;;5092793;28;20410;-52
2023/07/21 02:33:41;;;;;;;7.43;4.50;;;15.60;99.90;;;;;;5093119;28;20122;-50
2023/07/21 02:36:07;;;;;;;5.88;3.80;;;15.60;99.90;;;;;;5092634;28;20048;-47
2023/07/21 02:38:33;;;;;;;5.50;3.80;;;15.60;99.90;;;;;;5093279;28;20059;-46
2023/07/21 02:41:04;;;;;;;6.07;3.95;;;15.50;99.90;;;;;;5093090;28;20406;-47
2023/07/21 02:43:31;;;;;;;7.55;4.07;;;15.50;99.90;;;;;;5074468;28;20147;-49
2023/07/21 02:45:57;;;;;;;6.18;3.90;;;15.40;99.90;;;;;;5071856;28;20052;-49
2023/07/21 02:48:23;;;;;;;7.85;3.88;;;15.40;99.90;;;;;;5071873;28;20037;-52
2023/07/21 02:50:50;;;;;;;5.53;4.00;;;15.40;99.90;;;;;;5071669;28;20029;-49
2023/07/21 02:53:17;;;;;;;7.65;4.63;;;15.40;99.90;;;;;;5072146;28;20399;-49
2023/07/21 02:55:43;;;;;;;6.72;4.55;;;15.30;99.90;;;;;;5072217;28;20054;-50
2023/07/21 02:58:11;;;;;;;6.20;3.95;;;15.30;99.90;;;;;;5071925;28;20365;-50
2023/07/21 03:00:37;;;;;;;6.10;4.47;;;15.30;99.90;;;;;;5071908;28;20076;-51
2023/07/21 03:03:03;;;;;;;6.93;4.43;;;15.30;99.90;;;;;;5072157;28;20079;-52
2023/07/21 03:05:29;;;;;;;6.50;4.63;;;15.20;99.90;;;;;;5072027;28;20066;-48
2023/07/21 03:07:59;;;;;;;7.28;4.38;;;15.20;99.90;;;;;;5072863;28;20039;-53
2023/07/21 03:10:24;;;;;;;6.95;4.85;;;15.20;99.90;;;;;;5090738;28;20078;-47
2023/07/21 03:12:50;;;;;;;8.48;4.78;;;15.20;99.90;;;;;;5092499;28;20064;-50
2023/07/21 03:15:16;;;;;;;5.82;4.32;;;15.10;99.90;;;;;;5092356;28;20036;-49
2023/07/21 03:17:41;;;;;;;6.30;4.78;;;15.10;99.90;;;;;;5090854;28;20400;-48
2023/07/21 03:20:12;;;;;;;6.70;4.72;;;15.00;99.90;;;;;;5092071;28;20051;-50
2023/07/21 03:22:38;;;;;;;7.80;4.93;;;15.00;99.90;;;;;;5092630;28;20114;-47
2023/07/21 03:25:06;;;;;;;7.95;5.20;;;15.00;99.90;;;;;;5091958;28;20046;-47
2023/07/21 03:27:33;;;;;;;6.57;4.78;;;15.00;99.90;;;;;;5091760;28;20141;-50
2023/07/21 03:29:59;;;;;;;7.78;5.03;;;15.00;99.90;;;;;;5091690;28;20028;-49
2023/07/21 03:32:24;;;;;;;7.68;5.15;;;14.90;99.90;;;;;;5092037;28;20101;-53
2023/07/21 03:34:52;;;;;;;6.72;5.40;;;15.00;99.90;;;;;;5090406;28;20061;-50
2023/07/21 03:37:18;;;;;;;8.00;5.15;;;14.90;99.90;;;;;;5071295;28;20048;-49
2023/07/21 03:39:44;;;;;;;7.28;5.80;;;14.90;99.90;;;;;;5069608;28;20040;-48
2023/07/21 03:42:10;;;;;;;7.03;5.18;;;14.80;99.90;;;;;;5071309;28;20519;-49
2023/07/21 03:44:36;;;;;;;8.95;5.13;;;14.80;99.90;;;;;;5071091;28;20057;-47
2023/07/21 03:47:02;;;;;;;7.80;5.43;;;14.90;99.90;;;;;;5089341;28;20177;-51
2023/07/21 03:49:28;;;;;;;7.57;5.50;;;14.80;99.90;;;;;;5082366;28;20119;-49
2023/07/21 03:51:53;;;;;;;7.43;5.63;;;14.80;99.90;;;;;;5089432;28;20432;-48
2023/07/21 03:54:19;;;;;;;9.80;5.85;;;14.80;99.90;;;;;;5090305;28;20032;-53
2023/07/21 03:56:45;;;;;;;8.90;6.03;;;14.80;99.90;;;;;;5091363;28;20031;-48
2023/07/21 03:59:11;;;;;;;9.07;6.15;;;14.80;99.90;;;;;;5091308;28;20055;-52
2023/07/21 04:01:37;;;;;;;8.13;5.50;;;14.80;99.90;;;;;;5086738;28;20041;-48
2023/07/21 04:04:03;;;;;;;7.43;5.93;;;14.80;99.90;;;;;;5070928;28;20041;-53
2023/07/21 04:06:28;;;;;;;9.00;5.97;;;14.80;99.90;;;;;;5071081;28;20040;-51
2023/07/21 04:08:54;;;;;;;7.90;5.10;;;14.80;99.90;;;;;;5071212;28;20043;-51
2023/07/21 04:11:20;;;;;;;8.10;5.60;;;14.80;99.90;;;;;;5089508;28;20446;-51
2023/07/21 04:13:46;;;;;;;9.50;5.70;;;14.90;99.90;;;;;;5090988;28;20489;-52
2023/07/21 04:16:11;;;;;;;7.78;5.57;;;14.90;99.90;;;;;;5090967;28;20043;-48
2023/07/21 04:18:39;;;;;;;9.48;5.97;;;14.80;99.90;;;;;;5086047;28;20387;-49
2023/07/21 04:21:05;;;;;;;7.93;5.90;;;14.90;99.90;;;;;;5078069;28;20040;-51
2023/07/21 04:23:30;;;;;;;7.90;5.60;;;14.90;99.90;;;;;;5090869;28;20047;-46
2023/07/21 04:25:56;;;;;;;8.10;6.00;;;14.80;99.90;;;;;;5089552;28;20096;-46
2023/07/21 04:28:22;;;;;;;9.18;6.38;;;14.90;99.90;;;;;;5090282;28;20040;-48
2023/07/21 04:30:56;;;;;;;8.23;5.75;;;14.90;99.90;;;;;;5089756;28;20544;-47
2023/07/21 04:33:21;;;;;;;10.60;5.68;;;14.90;99.90;;;;;;5090747;28;20048;-47
2023/07/21 04:35:47;;;;;;;12.25;6.40;;;14.90;99.90;;;;;;5090769;28;20591;-50
2023/07/21 04:38:14;;;;;;;12.82;5.68;;;15.00;99.90;;;;;;5072668;28;20040;-52
2023/07/21 04:40:46;;;;;;;8.38;5.82;;;15.00;99.90;;;;;;5090996;28;20399;-50
2023/07/21 04:43:12;;;;;;;9.55;6.10;;;15.00;99.90;;;;;;5072136;28;20055;-52
2023/07/21 04:45:41;;;;;;;8.70;6.00;;;15.10;99.90;;;;;;5070566;28;20043;-52
2023/07/21 04:48:07;;;;;;;8.52;5.65;;;15.10;99.90;;;;;;5070245;28;20066;-49
2023/07/21 04:50:33;;;;;;;9.32;5.63;;;15.20;99.90;;;;;;5089513;28;20054;-52
2023/07/21 04:53:01;;;;;;;12.65;6.22;;;15.30;99.90;;;;;;5072640;28;20044;-50
2023/07/21 04:55:27;;;;;;;9.45;6.30;;;15.30;99.90;;;;;;5089591;28;20048;-52
2023/07/21 04:57:53;;;;;;;8.85;5.45;;;15.30;99.90;;;;;;5073803;28;20044;-50
2023/07/21 05:00:19;;;;;;;9.20;6.18;;;15.30;99.90;;;;;;5070272;28;20531;-48
2023/07/21 05:02:45;;;;;;;11.02;5.93;;;15.40;99.90;;;;;;5071105;28;20047;-50
2023/07/21 05:05:11;;;;;;;8.98;5.68;;;15.40;99.90;;;;;;5090444;28;20094;-51
2023/07/21 05:07:37;;;;;;;11.40;5.80;;;15.40;99.90;;;;;;5090398;28;20491;-52
2023/07/21 05:10:03;;;;;;;10.25;5.45;;;15.40;99.90;;;;;;5090595;28;20067;-49
2023/07/21 05:12:29;;;;;;;10.32;5.60;;;15.50;99.90;;;;;;5086130;28;20044;-48
2023/07/21 05:14:54;;;;;;;9.90;5.35;;;15.50;99.90;;;;;;5070571;28;20044;-46
2023/07/21 05:17:20;;;;;;;11.35;5.65;;;15.50;99.90;;;;;;5070103;28;20067;-47
2023/07/21 05:19:46;;;;;;;11.88;5.85;;;15.50;99.90;;;;;;5070338;28;20086;-51
2023/07/21 05:22:13;;;;;;;11.48;5.75;;;15.50;99.90;;;;;;5070023;28;20135;-49
2023/07/21 05:24:39;;;;;;;10.80;5.70;;;15.50;99.90;;;;;;5070862;28;20079;-49
2023/07/21 05:27:05;;;;;;;10.65;5.70;;;15.50;99.90;;;;;;5092542;28;20040;-49
2023/07/21 05:29:33;;;;;;;9.88;5.22;;;15.50;99.90;;;;;;5092940;28;20432;-49
2023/07/21 05:31:58;;;;;;;9.55;5.90;;;15.50;99.90;;;;;;5093993;28;20032;-49
2023/07/21 05:34:24;;;;;;;7.78;5.90;;;15.60;99.90;;;;;;5094392;28;20128;-51
2023/07/21 05:36:50;;;;;;;11.35;6.00;;;15.60;99.90;;;;;;5092774;28;20115;-48
2023/07/21 05:39:15;;;;;;;7.82;6.32;;;15.60;99.90;;;;;;5092813;28;20383;-52
2023/07/21 05:41:41;;;;;;;11.52;5.95;;;15.60;99.90;;;;;;5076955;28;20140;-50
2023/07/21 05:44:08;;;;;;;7.47;5.70;;;15.60;99.90;;;;;;5072373;28;20068;-49
2023/07/21 05:46:38;;;;;;;8.00;4.82;;;15.70;99.90;;;;;;5073273;28;20271;-50
2023/07/21 05:49:05;;;;;;;7.70;4.45;;;15.70;99.90;;;;;;5083800;28;20040;-48
2023/07/21 05:51:32;;;;;;;8.57;4.50;;;15.70;99.90;;;;;;5073506;28;20434;-48
2023/07/21 05:53:58;;;;;;;7.95;3.97;;;15.80;99.90;;;;;;5073681;28;20169;-49
2023/07/21 05:56:23;;;;;;;8.05;5.20;;;15.80;99.90;;;;;;5067522;28;20135;-48
2023/07/21 05:58:49;;;;;;;7.90;5.35;;;15.80;99.90;;;;;;5061732;28;20039;-49
2023/07/21 06:01:15;;;;;;;7.80;5.00;;;15.90;99.90;;;;;;5065036;28;20028;-49
2023/07/21 06:03:41;;;;;;;6.82;4.53;;;15.90;99.90;;;;;;5064790;28;20534;-51
2023/07/21 06:06:09;;;;;;;7.38;4.43;;;15.90;99.90;;;;;;5072329;28;20032;-50
2023/07/21 06:08:34;;;;;;;9.23;4.88;;;15.90;99.90;;;;;;5070948;28;20048;-49
2023/07/21 06:11:02;;;;;;;8.27;4.70;;;16.00;99.90;;;;;;5068896;28;20039;-49
2023/07/21 06:13:29;;;;;;;7.80;4.80;;;16.00;99.90;;;;;;5071896;28;20047;-50
2023/07/21 06:15:58;;;;;;;7.70;4.88;;;16.00;99.90;;;;;;5075691;28;20063;-49
2023/07/21 06:18:23;;;;;;;8.40;4.90;;;16.10;99.90;;;;;;5091622;28;20039;-47
2023/07/21 06:20:52;;;;;;;9.40;5.22;;;16.20;99.90;;;;;;5091801;28;20135;-49
2023/07/21 06:23:19;;;;;;;9.27;5.43;;;16.20;99.90;;;;;;5093207;28;20044;-48
2023/07/21 06:25:45;;;;;;;7.20;4.80;;;16.20;99.90;;;;;;5093076;28;20101;-49
2023/07/21 06:28:11;;;;;;;8.80;4.38;;;16.20;99.90;;;;;;5092830;28;20035;-48
2023/07/21 06:30:37;;;;;;;8.52;4.65;;;16.30;99.90;;;;;;5092890;28;20408;-51
2023/07/21 06:33:05;;;;;;;7.32;4.35;;;16.30;99.90;;;;;;5074885;28;20043;-50
2023/07/21 06:35:33;;;;;;;7.50;4.38;;;16.40;99.90;;;;;;5074094;28;20128;-47
2023/07/21 06:37:59;;;;;;;7.15;4.18;;;16.50;99.90;;;;;;5072441;28;20068;-48
2023/07/21 06:40:25;;;;;;;7.35;4.00;;;16.50;99.90;;;;;;5072826;28;20040;-48
2023/07/21 06:42:51;;;;;;;7.22;4.43;;;16.60;99.90;;;;;;5072569;28;20075;-50
2023/07/21 06:45:17;;;;;;;9.43;4.22;;;16.60;99.90;;;;;;5072976;28;20434;-48
2023/07/21 06:47:43;;;;;;;6.25;3.78;;;16.70;99.90;;;;;;5072638;28;20025;-48
2023/07/21 06:50:09;;;;;;;10.73;4.25;;;16.70;99.90;;;;;;5073247;28;20040;-46
2023/07/21 06:52:35;;;;;;;7.28;3.63;;;16.70;99.90;;;;;;5092413;28;20209;-52
2023/07/21 06:55:01;;;;;;;7.85;3.40;;;16.80;99.90;;;;;;5092216;28;20040;-48
2023/07/21 06:57:27;;;;;;;5.40;2.97;;;16.90;99.90;;;;;;5076479;28;20066;-49
2023/07/21 06:59:53;;;;;;;7.13;3.30;;;16.90;99.90;;;;;;5079298;28;20050;-51
2023/07/21 07:02:19;;;;;;;6.05;3.58;;;16.90;99.90;;;;;;5071331;28;20525;-49
2023/07/21 07:04:45;;;;;;;7.55;4.32;;;16.90;99.90;;;;;;5071531;28;20044;-51
2023/07/21 07:07:10;;;;;;;5.55;3.53;;;17.10;99.90;;;;;;5071719;28;20072;-48
2023/07/21 07:09:36;;;;;;;4.38;2.65;;;17.10;99.90;;;;;;5071715;28;20071;-49
2023/07/21 07:12:03;;;;;;;3.97;2.53;;;17.30;99.90;;;;;;5072321;28;20428;-48
2023/07/21 07:14:30;;;;;;;4.28;2.55;;;17.30;99.90;;;;;;5071991;28;20055;-50
2023/07/21 07:16:55;;;;;;;6.13;3.40;;;17.40;99.90;;;;;;5072197;28;20048;-49
2023/07/21 07:19:21;;;;;;;6.85;3.58;;;17.50;99.90;;;;;;5071646;28;20400;-50
2023/07/21 07:21:47;;;;;;;4.95;3.00;;;17.60;99.90;;;;;;5090583;28;20151;-50
2023/07/21 07:24:13;;;;;;;5.57;2.97;;;17.70;99.90;;;;;;5091934;28;20129;-46
2023/07/21 07:26:39;;;;;;;8.00;3.17;;;17.80;99.90;;;;;;5091559;28;20514;-49
2023/07/21 07:29:04;;;;;;;5.25;3.30;;;17.80;99.90;;;;;;5092058;28;20047;-50
2023/07/21 07:31:31;;;;;;;5.57;3.20;;;17.80;99.90;;;;;;5091883;28;20044;-51
2023/07/21 07:33:57;;;;;;;5.05;3.55;;;17.80;99.90;;;;;;5092052;28;20609;-52
2023/07/21 07:36:23;;;;;;;6.22;3.60;;;17.80;99.90;;;;;;5091785;28;20480;-50
2023/07/21 07:38:49;;;;;;;7.35;4.07;;;17.80;99.90;;;;;;5091706;28;20040;-49
2023/07/21 07:41:14;;;;;;;5.25;3.33;;;17.80;99.90;;;;;;5091694;28;20516;-51
2023/07/21 07:43:40;;;;;;;6.30;3.85;;;17.80;99.90;;;;;;5091561;28;20076;-49
2023/07/21 07:46:08;;;;;;;5.63;3.47;;;17.90;99.90;;;;;;5091733;28;20047;-49
2023/07/21 07:48:34;;;;;;;6.70;3.70;;;17.90;99.90;;;;;;5091316;28;20051;-47
2023/07/21 07:51:05;;;;;;;7.80;3.85;;;18.00;99.90;;;;;;5091461;28;20055;-48
2023/07/21 07:53:34;;;;;;;7.00;3.78;;;18.10;99.90;;;;;;5091791;28;20040;-50
2023/07/21 07:56:00;;;;;;;6.22;3.53;;;18.10;99.90;;;;;;5069275;28;20198;-48
2023/07/21 07:58:26;;;;;;;6.97;4.45;;;18.10;99.90;;;;;;5070258;28;20119;-48
2023/07/21 08:00:57;;;;;;;6.47;3.10;;;18.10;99.90;;;;;;5071113;28;20105;-49
2023/07/21 08:03:24;;;;;;;5.82;3.85;;;18.20;99.90;;;;;;5070769;28;20036;-50
2023/07/21 08:05:50;;;;;;;7.82;3.78;;;18.20;99.90;;;;;;5071320;28;20051;-48
2023/07/21 08:08:21;;;;;;;7.00;3.65;;;18.20;99.90;;;;;;5087808;28;20051;-50
2023/07/21 08:10:47;;;;;;;6.75;3.55;;;18.30;99.90;;;;;;5070486;28;20107;-50
2023/07/21 08:13:13;;;;;;;6.03;3.35;;;18.40;99.90;;;;;;5089746;28;20173;-49
2023/07/21 08:15:44;;;;;;;5.75;3.30;;;18.50;99.90;;;;;;5088412;28;20157;-50
2023/07/21 08:18:11;;;;;;;5.70;3.20;;;18.60;99.90;;;;;;5067769;28;20037;-48
2023/07/21 08:20:38;;;;;;;5.80;2.83;;;18.70;99.90;;;;;;5082345;28;20105;-50
2023/07/21 08:23:04;;;;;;;4.13;2.65;;;18.80;99.90;;;;;;5072399;28;20139;-53
2023/07/21 08:25:30;;;;;;;5.55;2.33;;;18.90;99.90;;;;;;5069255;28;20025;-48
2023/07/21 08:27:55;;;;;;;4.13;2.67;;;19.00;99.90;;;;;;5069775;28;20051;-49
2023/07/21 08:30:21;;;;;;;5.22;2.50;;;19.00;99.90;;;;;;5072221;28;20463;-50
2023/07/21 08:32:47;;;;;;;2.50;1.02;;;19.10;99.90;;;;;;5071749;28;20479;-49
2023/07/21 08:35:12;;;;;;;2.55;1.27;;;19.10;99.90;;;;;;5070649;28;20032;-46
2023/07/21 08:37:38;;;;;;;2.28;1.40;;;19.10;99.90;;;;;;5071078;28;20091;-49
2023/07/21 08:40:07;;;;;;;3.00;1.67;;;19.00;99.90;;;;;;5070865;28;20109;-52
2023/07/21 08:42:34;;;;;;;2.88;1.15;;;19.00;99.90;;;;;;5070810;28;20041;-49
2023/07/21 08:45:04;;;;;;;1.83;0.85;;;19.20;99.90;;;;;;5070231;28;20060;-52
2023/07/21 08:47:30;;;;;;;2.20;1.02;;;19.20;99.90;;;;;;5070566;28;20085;-50
2023/07/21 08:49:57;;;;;;;2.08;0.73;;;19.30;99.90;;;;;;5070530;28;20040;-50
2023/07/21 08:52:23;;;;;;;2.45;0.85;;;19.40;99.90;;;;;;5070776;28;20527;-48
2023/07/21 08:54:49;;;;;;;2.63;0.90;;;19.50;99.90;;;;;;5068383;28;20037;-48
2023/07/21 08:57:15;;;;;;;2.78;0.90;;;19.50;99.90;;;;;;5069713;28;20032;-48
2023/07/21 08:59:41;;;;;;;3.17;1.00;;;19.50;99.90;;;;;;5072440;28;20040;-51
2023/07/21 09:02:07;;;;;;;3.17;1.27;;;19.60;99.90;;;;;;5073980;28;20028;-47
2023/07/21 09:04:33;;;;;;;2.50;1.05;;;19.60;99.90;;;;;;5073786;28;20036;-48
2023/07/21 09:07:01;;;;;;;2.75;1.05;;;19.70;99.90;;;;;;5077177;28;20046;-51
2023/07/21 09:09:32;;;;;;;3.78;1.38;;;19.70;99.90;;;;;;5073798;28;20040;-52
2023/07/21 09:12:08;;;;;;;3.20;1.67;;;19.80;99.90;;;;;;5072700;28;20037;-47
2023/07/21 09:14:44;;;;;;;2.67;1.60;;;19.80;99.90;;;;;;5074228;28;20036;-52
2023/07/21 09:17:12;;;;;;;2.80;1.30;;;19.90;99.90;;;;;;5073077;28;20036;-50
2023/07/21 09:19:39;;;;;;;3.90;1.60;;;20.00;99.90;;;;;;5072843;28;20067;-46
2023/07/21 09:22:06;;;;;;;3.03;1.70;;;20.20;99.90;;;;;;5073763;28;20040;-49
2023/07/21 09:24:32;;;;;;;4.05;1.92;;;20.30;99.90;;;;;;5072561;28;20407;-51
2023/07/21 09:27:14;;;;;;;3.40;2.17;;;20.50;99.90;;;;;;5073028;28;20036;-49
2023/07/21 09:29:43;;;;;;;3.95;2.20;;;20.60;99.90;;;;;;5073733;28;20559;-49
2023/07/21 09:32:21;;;;;;;3.67;1.95;;;20.70;99.90;;;;;;5073701;28;20086;-50
2023/07/21 09:34:55;;;;;;;3.10;1.80;;;20.80;99.90;;;;;;5073740;28;20045;-50
2023/07/21 09:37:23;;;;;;;2.75;1.50;;;21.10;99.90;;;;;;5072495;28;20102;-48
2023/07/21 09:39:57;;;;;;;3.75;1.67;;;21.30;99.90;;;;;;5073939;28;20050;-50
2023/07/21 09:42:27;;;;;;;2.78;1.30;;;21.50;99.90;;;;;;5073695;28;20053;-48
2023/07/21 09:44:54;;;;;;;2.83;1.40;;;21.50;99.90;;;;;;5073566;28;20486;-48
2023/07/21 09:47:20;;;;;;;2.50;1.20;;;21.50;99.90;;;;;;5073393;28;20036;-51
2023/07/21 09:49:48;;;;;;;2.13;1.10;;;21.40;99.90;;;;;;5073600;28;20133;-53
2023/07/21 09:52:17;;;;;;;1.85;0.88;;;21.40;99.90;;;;;;5074054;28;20032;-48
2023/07/21 09:54:47;;;;;;;2.50;0.90;;;21.40;99.90;;;;;;5073406;28;20040;-48
2023/07/21 09:57:16;;;;;;;1.75;0.88;;;21.50;99.90;;;;;;5073280;28;20032;-50
2023/07/21 09:59:49;;;;;;;1.88;1.00;;;21.70;99.90;;;;;;5091281;28;20452;-48
2023/07/21 10:02:19;;;;;;;1.77;1.00;;;21.70;99.90;;;;;;5090843;28;20558;-50
2023/07/21 10:04:45;;;;;;;2.72;0.90;;;21.60;99.90;;;;;;5092107;28;20059;-49
2023/07/21 10:07:12;;;;;;;2.58;1.10;;;21.60;99.90;;;;;;5093562;28;20150;-48
2023/07/21 10:09:39;;;;;;;2.90;1.10;;;21.60;99.90;;;;;;5093334;28;20040;-49
2023/07/21 10:12:14;;;;;;;2.22;0.90;;;21.50;99.90;;;;;;5092804;28;20032;-47
2023/07/21 10:14:40;;;;;;;1.77;0.80;;;21.70;99.90;;;;;;5093641;28;20028;-51
2023/07/21 10:17:08;;;;;;;2.35;0.90;;;21.90;99.90;;;;;;5093620;28;20051;-50
2023/07/21 10:19:44;;;;;;;2.58;1.20;;;22.00;99.90;;;;;;5093708;28;20497;-49
2023/07/21 10:22:24;;;;;;;2.67;1.30;;;22.20;99.90;;;;;;5093125;28;20036;-50
2023/07/21 10:24:51;;;;;;;2.97;1.08;;;22.20;99.90;;;;;;5093219;28;20027;-49
2023/07/21 10:27:21;;;;;;;2.55;1.05;;;22.10;99.90;;;;;;5074831;28;20033;-49
2023/07/21 10:29:53;;;;;;;4.53;0.80;;;22.10;99.90;;;;;;5084188;28;20070;-54
2023/07/21 10:32:22;;;;;;;2.25;0.95;;;22.10;99.90;;;;;;5073262;28;20033;-52
2023/07/21 10:34:51;;;;;;;3.80;1.10;;;22.10;99.90;;;;;;5072615;28;20495;-50
2023/07/21 10:37:17;;;;;;;1.88;0.80;;;22.20;99.90;;;;;;5073334;28;20496;-51
2023/07/21 10:39:53;;;;;;;1.63;0.80;;;22.30;99.80;;;;;;5090405;28;20040;-49
2023/07/21 10:42:19;;;;;;;1.63;0.85;;;22.30;99.90;;;;;;5074047;28;20044;-50
2023/07/21 10:44:46;;;;;;;1.58;0.80;;;22.30;99.80;;;;;;5070627;28;20056;-49
2023/07/21 10:47:17;;;;;;;1.75;0.90;;;22.20;99.10;;;;;;5072351;28;20051;-49
2023/07/21 10:49:43;;;;;;;2.17;0.85;;;22.20;99.20;;;;;;5071159;28;20080;-47
2023/07/21 10:52:09;;;;;;;2.10;0.80;;;22.20;99.40;;;;;;5072082;28;20036;-48
2023/07/21 10:54:35;;;;;;;1.27;0.60;;;22.20;99.30;;;;;;5074374;28;20040;-52
2023/07/21 10:57:02;;;;;;;2.42;0.80;;;22.20;99.00;;;;;;5075351;28;20468;-51
2023/07/21 10:59:31;;;;;;;3.75;0.70;;;22.20;98.60;;;;;;5076439;28;20484;-51
2023/07/21 11:01:57;;;;;;;1.52;0.73;;;22.30;98.10;;;;;;5073614;28;20039;-52
2023/07/21 11:04:23;;;;;;;1.20;0.50;;;22.20;97.90;;;;;;5072594;28;20119;-51
2023/07/21 11:06:51;;;;;;;1.75;0.70;;;22.20;97.70;;;;;;5071801;28;20074;-50
2023/07/21 11:09:18;;;;;;;0.98;0.47;;;22.20;97.10;;;;;;5071866;28;20036;-51
2023/07/21 11:11:52;;;;;;;1.73;0.60;;;22.20;96.60;;;;;;5072039;28;20032;-49
2023/07/21 11:14:21;;;;;;;1.70;0.60;;;22.30;97.10;;;;;;5071801;28;20048;-50
2023/07/21 11:16:57;;;;;;;2.38;0.80;;;22.50;97.70;;;;;;5071999;28;20040;-51
2023/07/21 11:19:25;;;;;;;2.10;0.90;;;22.70;97.40;;;;;;5071816;28;20167;-51
2023/07/21 11:21:51;;;;;;;1.20;0.63;;;22.90;97.70;;;;;;5071351;28;20154;-49
2023/07/21 11:24:26;;;;;;;2.00;0.70;;;23.10;96.90;;;;;;5071131;28;20033;-51
2023/07/21 11:26:56;;;;;;;1.65;0.70;;;23.40;96.30;;;;;;5071931;28;20036;-50
2023/07/21 11:29:24;;;;;;;1.38;0.68;;;23.60;97.10;;;;;;5071913;28;20523;-51
2023/07/21 11:31:49;;;;;;;1.48;0.70;;;23.80;96.90;;;;;;5071750;28;20476;-52
2023/07/21 11:34:29;;;;;;;2.03;0.70;;;23.90;96.70;;;;;;5071607;28;20057;-53
2023/07/21 11:36:57;;;;;;;3.00;1.05;;;24.10;95.40;;;;;;5071799;28;20484;-53
2023/07/21 11:39:24;;;;;;;2.20;0.98;;;24.10;96.30;;;;;;5071333;28;20047;-49
2023/07/21 11:41:54;;;;;;;2.25;1.10;;;24.00;96.40;;;;;;5083176;28;20122;-50
2023/07/21 11:44:26;;;;;;;2.63;0.98;;;24.00;96.10;;;;;;5089090;28;20052;-52
2023/07/21 11:47:10;;;;;;;2.15;0.80;;;23.90;95.80;;;;;;5091316;28;20173;-53
2023/07/21 11:49:42;;;;;;;2.42;0.75;;;23.70;95.40;;;;;;5077150;28;20055;-50
2023/07/21 11:52:09;;;;;;;1.88;0.77;;;23.70;95.80;;;;;;5071429;28;20047;-50
2023/07/21 11:54:45;;;;;;;1.90;1.00;;;23.90;96.20;;;;;;5088984;28;20048;-50
2023/07/21 11:57:12;;;;;;;1.98;1.00;;;24.00;95.80;;;;;;5089684;28;20507;-52
2023/07/21 11:59:37;;;;;;;1.90;1.00;;;23.90;96.10;;;;;;5088710;28;20035;-52
2023/07/21 12:02:06;;;;;;;2.50;1.10;;;23.70;96.40;;;;;;5079440;28;20032;-51
2023/07/21 12:04:33;;;;;;;2.13;1.10;;;23.80;96.80;;;;;;5071343;28;20466;-52
2023/07/21 12:06:59;;;;;;;1.70;0.70;;;23.90;96.30;;;;;;5071197;28;20384;-52
2023/07/21 12:09:25;;;;;;;2.75;0.85;;;24.00;96.50;;;;;;5089744;28;20039;-51
2023/07/21 12:11:54;;;;;;;2.88;0.80;;;24.20;96.20;;;;;;5071811;28;20175;-50
2023/07/21 12:14:20;;;;;;;1.85;0.85;;;24.20;96.10;;;;;;5070615;28;20040;-50
2023/07/21 12:16:46;;;;;;;3.17;0.90;;;24.30;96.10;;;;;;5070755;28;20032;-53
2023/07/21 12:19:13;;;;;;;3.17;1.13;;;24.20;96.40;;;;;;5083834;28;20501;-52
2023/07/21 12:21:39;;;;;;;2.53;1.00;;;24.30;96.00;;;;;;5090900;28;20396;-50
2023/07/21 12:24:05;;;;;;;2.58;1.17;;;24.40;95.70;;;;;;5091076;28;20044;-53
2023/07/21 12:26:31;;;;;;;2.58;1.10;;;24.20;95.00;;;;;;5090770;28;20047;-50
2023/07/21 12:28:56;;;;;;;2.92;1.25;;;23.80;94.90;;;;;;5090654;28;20123;-48
2023/07/21 12:31:22;;;;;;;2.85;1.50;;;23.60;95.70;;;;;;5089379;28;20047;-51
2023/07/21 12:33:48;;;;;;;3.60;1.50;;;23.40;95.90;;;;;;5090399;28;20451;-51
2023/07/21 12:36:15;;;;;;;2.33;1.00;;;23.40;96.40;;;;;;5089852;28;20043;-49
2023/07/21 12:38:41;;;;;;;2.70;1.10;;;23.20;95.80;;;;;;5090803;28;20073;-51
2023/07/21 12:41:08;;;;;;;2.20;0.88;;;23.10;95.90;;;;;;5090887;28;20089;-52
2023/07/21 12:43:34;;;;;;;2.67;1.08;;;22.90;95.70;;;;;;5090402;28;20058;-50
2023/07/21 12:46:01;;;;;;;3.15;1.00;;;22.60;94.90;;;;;;5069791;28;20052;-51